Time;durP1;ratioP1;P1;durP2;ratioP2;P2;SDS_P1;SDS_P2;PMS_P1;PMS_P2;Temp;Humidity;BMP_temperature;BMP_pressure;BME280_temperature;BME280_humidity;BME280_pressure;Samples;Min_cycle;Max_cycle;Signal;HPM_P1;HPM_P2
2023/08/14 00:02:06;;;;;;;2.93;2.70;;;21.00;99.90;;;;;;5087123;28;20439;-80
2023/08/14 00:04:33;;;;;;;3.33;3.03;;;20.80;99.90;;;;;;5092633;28;20447;-80
2023/08/14 00:07:02;;;;;;;3.70;3.47;;;20.80;99.90;;;;;;5077823;28;20463;-81
2023/08/14 00:09:28;;;;;;;3.77;3.43;;;20.80;99.90;;;;;;5079858;28;20515;-82
2023/08/14 00:11:55;;;;;;;4.03;3.50;;;20.70;99.90;;;;;;5084740;28;20539;-82
2023/08/14 00:14:22;;;;;;;4.77;3.50;;;20.50;99.90;;;;;;5086903;28;20440;-81
2023/08/14 00:16:49;;;;;;;5.23;4.83;;;20.40;99.90;;;;;;5087354;28;20447;-81
2023/08/14 00:19:16;;;;;;;5.00;4.17;;;20.40;99.90;;;;;;5085759;28;21215;-84
2023/08/14 00:21:43;;;;;;;5.80;4.03;;;20.50;99.90;;;;;;5087628;28;20454;-81
2023/08/14 00:24:11;;;;;;;5.57;4.70;;;20.50;99.90;;;;;;5086817;28;20435;-80
2023/08/14 00:26:38;;;;;;;10.20;5.40;;;20.50;99.90;;;;;;5084180;28;20924;-84
2023/08/14 00:29:05;;;;;;;3.70;3.40;;;20.60;99.90;;;;;;5079293;28;20492;-81
2023/08/14 00:31:32;;;;;;;5.13;3.73;;;20.60;99.90;;;;;;5082769;28;20451;-81
2023/08/14 00:33:59;;;;;;;4.50;4.20;;;20.60;99.90;;;;;;5087296;28;20442;-81
2023/08/14 00:36:26;;;;;;;5.40;3.67;;;20.60;99.90;;;;;;5084395;28;21565;-80
2023/08/14 00:38:53;;;;;;;5.37;4.90;;;20.80;99.90;;;;;;5085980;28;20470;-81
2023/08/14 00:41:21;;;;;;;4.17;3.87;;;20.90;99.90;;;;;;5088160;28;20447;-80
2023/08/14 00:43:48;;;;;;;5.20;4.43;;;21.00;99.90;;;;;;5079662;28;20466;-81
2023/08/14 00:46:16;;;;;;;5.30;4.80;;;21.20;99.90;;;;;;5085350;28;20463;-81
2023/08/14 00:48:43;;;;;;;4.00;3.70;;;21.30;99.90;;;;;;5086664;28;20551;-84
2023/08/14 00:51:10;;;;;;;4.07;3.67;;;21.40;99.90;;;;;;5088651;28;20528;-81
2023/08/14 00:53:37;;;;;;;4.47;4.10;;;21.50;99.90;;;;;;5084489;28;20470;-80
2023/08/14 00:56:05;;;;;;;4.20;3.30;;;21.50;99.90;;;;;;5084252;28;20456;-80
2023/08/14 00:58:34;;;;;;;4.50;4.10;;;21.50;99.90;;;;;;5091917;28;20427;-80
2023/08/14 01:01:02;;;;;;;4.30;4.00;;;21.50;99.90;;;;;;5102392;28;20512;-80
2023/08/14 01:03:29;;;;;;;3.67;3.43;;;21.70;99.90;;;;;;5098875;28;20451;-81
2023/08/14 01:05:57;;;;;;;4.13;3.27;;;21.60;99.90;;;;;;5084676;28;20513;-81
2023/08/14 01:08:24;;;;;;;3.40;2.83;;;21.60;99.90;;;;;;5090460;28;20447;-80
2023/08/14 01:10:59;;;;;;;4.10;3.70;;;21.60;99.90;;;;;;5088410;28;20451;-80
2023/08/14 01:13:32;;;;;;;4.03;3.63;;;21.60;99.90;;;;;;5085009;28;20526;-80
2023/08/14 01:16:03;;;;;;;4.17;3.87;;;21.60;99.90;;;;;;5086346;28;20937;-82
2023/08/14 01:18:34;;;;;;;3.53;3.20;;;21.60;99.90;;;;;;5081117;28;20953;-82
2023/08/14 01:21:12;;;;;;;3.80;3.50;;;21.50;99.90;;;;;;5085654;28;20529;-81
2023/08/14 01:23:50;;;;;;;4.37;4.00;;;21.50;99.90;;;;;;5073785;28;20505;-83
2023/08/14 01:26:18;;;;;;;2.90;2.70;;;21.50;99.90;;;;;;5082054;28;20454;-79
2023/08/14 01:28:46;;;;;;;4.20;3.90;;;21.40;99.90;;;;;;5082812;28;20544;-81
2023/08/14 01:31:13;;;;;;;3.73;3.53;;;21.40;99.90;;;;;;5080976;28;20439;-82
2023/08/14 01:33:40;;;;;;;4.23;3.40;;;21.40;99.90;;;;;;5084359;28;20513;-83
2023/08/14 01:36:16;;;;;;;3.30;3.10;;;21.30;99.90;;;;;;5087467;28;20488;-81
2023/08/14 01:38:50;;;;;;;6.50;4.07;;;21.30;99.90;;;;;;5082864;28;20494;-80
2023/08/14 01:41:26;;;;;;;4.10;3.77;;;21.30;99.90;;;;;;5082948;28;20498;-81
2023/08/14 01:43:58;;;;;;;5.10;3.53;;;21.30;99.90;;;;;;5078125;28;20479;-81
2023/08/14 01:46:26;;;;;;;4.77;4.47;;;21.30;99.90;;;;;;5079587;28;20552;-83
2023/08/14 01:48:55;;;;;;;5.00;3.93;;;21.30;99.90;;;;;;5086432;28;20569;-83
2023/08/14 01:51:23;;;;;;;4.10;3.77;;;21.30;99.90;;;;;;5073341;28;20439;-82
2023/08/14 01:53:50;;;;;;;5.77;4.00;;;21.30;99.90;;;;;;5086535;28;20536;-83
2023/08/14 01:56:18;;;;;;;3.57;3.30;;;21.30;99.90;;;;;;5079441;28;20478;-82
2023/08/14 01:58:45;;;;;;;3.83;3.30;;;21.20;99.90;;;;;;5076567;28;21217;-81
2023/08/14 02:01:12;;;;;;;2.43;2.23;;;21.30;99.90;;;;;;5083676;28;20471;-85
2023/08/14 02:03:40;;;;;;;3.37;3.10;;;21.20;99.90;;;;;;5084867;28;20508;-81
2023/08/14 02:06:07;;;;;;;3.67;3.10;;;21.20;99.90;;;;;;5084849;28;20438;-80
2023/08/14 02:08:34;;;;;;;3.03;2.83;;;21.20;99.90;;;;;;5085655;28;20477;-81
2023/08/14 02:11:07;;;;;;;3.93;3.40;;;21.20;99.90;;;;;;5087071;28;20529;-81
2023/08/14 02:13:35;;;;;;;3.07;2.60;;;21.10;99.90;;;;;;5083996;28;20436;-82
2023/08/14 02:16:04;;;;;;;2.70;2.50;;;21.10;99.90;;;;;;5080008;28;21114;-80
2023/08/14 02:18:31;;;;;;;3.73;2.67;;;21.00;99.90;;;;;;5101217;28;20430;-82
2023/08/14 02:20:58;;;;;;;2.50;2.33;;;21.00;99.90;;;;;;5108738;28;20443;-78
2023/08/14 02:23:25;;;;;;;3.67;2.90;;;21.00;99.90;;;;;;5098800;28;20489;-81
2023/08/14 02:25:54;;;;;;;3.07;2.77;;;20.90;99.90;;;;;;5102090;28;20454;-83
2023/08/14 02:28:21;;;;;;;3.03;2.83;;;20.90;99.90;;;;;;5091950;28;20554;-81
2023/08/14 02:30:50;;;;;;;2.57;2.37;;;20.90;99.90;;;;;;5089107;28;20568;-81
2023/08/14 02:33:17;;;;;;;2.40;2.20;;;20.90;99.90;;;;;;5089563;28;20532;-80
2023/08/14 02:35:44;;;;;;;7.00;2.10;;;20.80;99.90;;;;;;5083472;28;21083;-83
2023/08/14 02:38:10;;;;;;;3.23;2.70;;;20.80;99.90;;;;;;5089807;28;20504;-84
2023/08/14 02:40:38;;;;;;;2.13;1.93;;;20.80;99.90;;;;;;5088170;28;20465;-81
2023/08/14 02:43:05;;;;;;;2.00;1.80;;;20.80;99.90;;;;;;5087366;28;20460;-81
2023/08/14 02:45:32;;;;;;;3.70;2.63;;;20.70;99.90;;;;;;5086283;28;20930;-81
2023/08/14 02:48:01;;;;;;;1.80;1.67;;;20.70;99.90;;;;;;5088353;28;20451;-82
2023/08/14 02:50:28;;;;;;;4.23;2.27;;;20.70;99.90;;;;;;5084156;28;20551;-81
2023/08/14 02:52:55;;;;;;;2.33;2.13;;;20.60;99.90;;;;;;5087804;28;20472;-81
2023/08/14 02:55:21;;;;;;;2.13;2.00;;;20.60;99.90;;;;;;5078665;28;21160;-83
2023/08/14 02:57:48;;;;;;;2.23;2.03;;;20.60;99.90;;;;;;5088901;28;20442;-83
2023/08/14 03:00:16;;;;;;;2.63;2.03;;;20.60;99.90;;;;;;5087375;28;20993;-81
2023/08/14 03:02:42;;;;;;;3.40;2.13;;;20.60;99.90;;;;;;5082904;28;21198;-81
2023/08/14 03:05:11;;;;;;;5.70;2.23;;;20.70;99.90;;;;;;5088427;28;20520;-81
2023/08/14 03:07:38;;;;;;;1.50;1.40;;;20.70;99.90;;;;;;5083523;28;20502;-80
2023/08/14 03:10:06;;;;;;;2.00;1.60;;;20.70;99.90;;;;;;5087680;28;20969;-80
2023/08/14 03:12:33;;;;;;;2.30;2.00;;;20.70;99.90;;;;;;5088403;28;20448;-85
2023/08/14 03:15:00;;;;;;;2.87;2.63;;;20.70;99.90;;;;;;5084397;28;20868;-81
2023/08/14 03:17:26;;;;;;;2.13;1.40;;;20.60;99.90;;;;;;5088247;28;20520;-83
2023/08/14 03:19:53;;;;;;;2.00;1.50;;;20.50;99.90;;;;;;5087838;28;20850;-79
2023/08/14 03:22:22;;;;;;;2.63;1.60;;;20.50;99.90;;;;;;5087294;28;20500;-81
2023/08/14 03:24:49;;;;;;;1.37;1.27;;;20.50;99.90;;;;;;5084356;28;20486;-81
2023/08/14 03:27:16;;;;;;;3.00;2.50;;;20.50;99.90;;;;;;5084508;28;20439;-81
2023/08/14 03:29:42;;;;;;;2.73;2.03;;;20.40;99.90;;;;;;5084670;28;20879;-80
2023/08/14 03:32:09;;;;;;;2.50;1.20;;;20.30;99.90;;;;;;5091764;28;20439;-84
2023/08/14 03:34:36;;;;;;;3.83;1.93;;;20.30;99.90;;;;;;5084230;28;20812;-83
2023/08/14 03:37:03;;;;;;;2.87;2.00;;;20.30;99.90;;;;;;5088065;28;20530;-81
2023/08/14 03:39:32;;;;;;;3.77;1.87;;;20.20;99.90;;;;;;5087562;28;20946;-79
2023/08/14 03:41:59;;;;;;;2.20;2.00;;;20.20;99.90;;;;;;5085435;28;20487;-81
2023/08/14 03:44:25;;;;;;;2.30;2.10;;;20.10;99.90;;;;;;5084307;28;20455;-81
2023/08/14 03:46:52;;;;;;;2.23;1.90;;;20.20;99.90;;;;;;5085661;28;20516;-82
2023/08/14 03:49:19;;;;;;;2.47;2.23;;;20.10;99.90;;;;;;5081227;28;21016;-82
2023/08/14 03:51:46;;;;;;;1.87;1.77;;;20.20;99.90;;;;;;5085056;28;20535;-83
2023/08/14 03:54:13;;;;;;;3.00;2.80;;;20.00;99.90;;;;;;5084660;28;20556;-81
2023/08/14 03:56:42;;;;;;;4.43;3.13;;;20.00;99.90;;;;;;5086464;28;20443;-81
2023/08/14 03:59:09;;;;;;;3.40;3.20;;;20.00;99.90;;;;;;5083629;28;20523;-82
2023/08/14 04:01:37;;;;;;;2.60;2.50;;;20.00;99.90;;;;;;5080973;28;20470;-81
2023/08/14 04:04:05;;;;;;;2.37;2.17;;;20.00;99.90;;;;;;5086862;28;20447;-81
2023/08/14 04:06:32;;;;;;;3.83;2.27;;;20.10;99.90;;;;;;5081425;28;21178;-81
2023/08/14 04:09:01;;;;;;;5.73;2.80;;;20.00;99.90;;;;;;5087062;28;20488;-81
2023/08/14 04:11:28;;;;;;;2.90;2.60;;;20.10;99.90;;;;;;5079688;28;20537;-81
2023/08/14 04:13:57;;;;;;;3.07;2.77;;;20.10;99.90;;;;;;5085124;28;20819;-81
2023/08/14 04:16:40;;;;;;;2.60;2.40;;;20.20;99.90;;;;;;5086340;28;20505;-83
2023/08/14 04:19:08;;;;;;;2.77;2.57;;;20.20;99.90;;;;;;5086539;28;21130;-83
2023/08/14 04:21:35;;;;;;;2.30;2.13;;;20.20;99.90;;;;;;5080843;28;20513;-81
2023/08/14 04:24:02;;;;;;;4.00;3.63;;;20.30;99.90;;;;;;5088310;28;20506;-81
2023/08/14 04:26:29;;;;;;;2.77;2.57;;;20.40;99.90;;;;;;5083527;28;20984;-82
2023/08/14 04:28:57;;;;;;;3.30;2.80;;;20.40;99.90;;;;;;5078457;28;20487;-81
2023/08/14 04:31:24;;;;;;;3.47;2.90;;;20.40;99.90;;;;;;5073290;28;20596;-84
2023/08/14 04:33:52;;;;;;;3.13;2.93;;;20.50;99.90;;;;;;5080154;28;20864;-81
2023/08/14 04:36:19;;;;;;;2.80;2.60;;;20.70;99.90;;;;;;5075048;28;20452;-82
2023/08/14 04:38:46;;;;;;;4.03;3.63;;;20.80;99.90;;;;;;5068047;28;21205;-81
2023/08/14 04:41:12;;;;;;;4.30;3.90;;;20.90;99.90;;;;;;5071403;28;20485;-84
2023/08/14 04:43:39;;;;;;;5.83;4.07;;;21.00;99.90;;;;;;5072504;28;20495;-84
2023/08/14 04:46:12;;;;;;;5.10;4.70;;;21.10;99.90;;;;;;5072567;28;20498;-80
2023/08/14 04:48:39;;;;;;;3.40;3.17;;;21.40;99.90;;;;;;5076540;28;20509;-81
2023/08/14 04:51:07;;;;;;;3.97;3.67;;;21.60;99.90;;;;;;5085970;28;20503;-81
2023/08/14 04:53:34;;;;;;;3.67;3.37;;;21.70;99.90;;;;;;5079010;28;20545;-83
2023/08/14 04:56:00;;;;;;;4.80;4.50;;;21.70;99.90;;;;;;5078979;28;20451;-75
2023/08/14 04:58:27;;;;;;;4.20;3.90;;;21.90;99.90;;;;;;5071113;28;21204;-79
2023/08/14 05:00:54;;;;;;;3.90;3.60;;;21.90;99.90;;;;;;5081728;28;20476;-82
2023/08/14 05:03:23;;;;;;;3.43;3.20;;;22.00;99.90;;;;;;5078315;28;20853;-79
2023/08/14 05:05:53;;;;;;;3.37;3.17;;;22.20;99.90;;;;;;5076830;28;21383;-79
2023/08/14 05:08:20;;;;;;;4.03;3.50;;;22.30;99.90;;;;;;5076163;28;20539;-81
2023/08/14 05:10:51;;;;;;;6.87;3.83;;;22.40;99.90;;;;;;5083105;28;20562;-78
2023/08/14 05:13:18;;;;;;;4.07;3.67;;;22.40;99.90;;;;;;5081642;28;20857;-79
2023/08/14 05:15:46;;;;;;;4.60;3.60;;;22.60;99.90;;;;;;5080457;28;20494;-80
2023/08/14 05:18:13;;;;;;;3.23;2.87;;;22.50;99.90;;;;;;5080621;28;21023;-82
2023/08/14 05:20:43;;;;;;;3.97;2.47;;;22.60;99.90;;;;;;5077729;28;20992;-81
2023/08/14 05:23:10;;;;;;;3.00;2.80;;;22.40;99.90;;;;;;5079116;28;20446;-79
2023/08/14 05:25:37;;;;;;;3.27;3.00;;;22.30;99.90;;;;;;5079154;28;20585;-80
2023/08/14 05:28:05;;;;;;;9.00;3.90;;;22.10;99.90;;;;;;5081850;28;20443;-81
2023/08/14 05:30:32;;;;;;;2.60;2.40;;;22.00;99.90;;;;;;5075793;28;21264;-79
2023/08/14 05:32:59;;;;;;;4.20;2.60;;;21.90;99.90;;;;;;5075705;28;21028;-81
2023/08/14 05:35:26;;;;;;;7.93;2.80;;;21.70;99.90;;;;;;5079071;28;21205;-82
2023/08/14 05:37:58;;;;;;;3.83;3.63;;;21.60;99.90;;;;;;5074275;28;20470;-79
2023/08/14 05:40:26;;;;;;;3.60;3.40;;;21.60;99.90;;;;;;5068844;28;20871;-81
2023/08/14 05:43:03;;;;;;;5.40;3.50;;;21.70;99.90;;;;;;5066549;28;20520;-79
2023/08/14 05:45:30;;;;;;;3.70;3.40;;;21.80;99.90;;;;;;5072499;28;20546;-78
2023/08/14 05:47:57;;;;;;;4.20;4.00;;;21.90;99.90;;;;;;5085908;28;20550;-79
2023/08/14 05:50:25;;;;;;;5.37;4.10;;;21.90;99.90;;;;;;5085123;28;20559;-79
2023/08/14 05:52:54;;;;;;;4.27;3.77;;;21.70;99.90;;;;;;5085574;28;20763;-81
2023/08/14 05:55:21;;;;;;;3.70;3.40;;;21.60;99.90;;;;;;5082755;28;20867;-79
2023/08/14 05:57:48;;;;;;;4.57;4.23;;;21.60;99.90;;;;;;5086305;28;20475;-79
2023/08/14 06:00:16;;;;;;;3.13;2.83;;;21.60;99.90;;;;;;5088995;28;20467;-79
2023/08/14 06:02:44;;;;;;;6.60;3.80;;;21.60;99.90;;;;;;5088049;28;21158;-80
2023/08/14 06:05:11;;;;;;;3.87;3.57;;;21.50;99.90;;;;;;5088666;28;20543;-80
2023/08/14 06:07:39;;;;;;;3.17;2.87;;;21.50;99.90;;;;;;5086626;28;22209;-78
2023/08/14 06:10:08;;;;;;;5.90;4.60;;;21.50;99.90;;;;;;5091049;28;20482;-79
2023/08/14 06:12:35;;;;;;;3.10;2.90;;;21.60;99.90;;;;;;5083102;28;20467;-79
2023/08/14 06:15:03;;;;;;;3.10;2.90;;;21.60;99.90;;;;;;5081491;28;20708;-80
2023/08/14 06:17:31;;;;;;;3.23;3.03;;;21.60;99.90;;;;;;5085192;28;20499;-77
2023/08/14 06:19:58;;;;;;;3.23;3.00;;;21.60;99.90;;;;;;5080663;28;20463;-79
2023/08/14 06:22:25;;;;;;;4.13;3.70;;;21.80;99.90;;;;;;5088546;28;20497;-79
2023/08/14 06:24:52;;;;;;;3.23;3.03;;;22.10;99.90;;;;;;5076412;28;20464;-79
2023/08/14 06:27:20;;;;;;;5.17;4.70;;;22.40;99.90;;;;;;5083632;28;20466;-78
2023/08/14 06:29:47;;;;;;;3.90;3.30;;;22.70;99.90;;;;;;5083091;28;20901;-78
2023/08/14 06:32:14;;;;;;;3.17;2.87;;;23.00;99.90;;;;;;5082415;28;20443;-78
2023/08/14 06:34:43;;;;;;;3.20;3.00;;;23.20;99.90;;;;;;5083623;28;20535;-78
2023/08/14 06:37:10;;;;;;;3.03;2.83;;;23.20;99.90;;;;;;5081956;28;20939;-80
2023/08/14 06:39:36;;;;;;;3.67;3.47;;;23.30;99.90;;;;;;5083033;28;20444;-81
2023/08/14 06:42:04;;;;;;;3.50;3.20;;;23.70;99.90;;;;;;5079696;28;20453;-81
2023/08/14 06:44:32;;;;;;;4.03;3.70;;;23.70;99.90;;;;;;5084494;28;20921;-79
2023/08/14 06:47:00;;;;;;;4.13;2.67;;;23.60;99.90;;;;;;5081207;28;20803;-78
2023/08/14 06:49:27;;;;;;;4.13;3.20;;;23.20;99.90;;;;;;5083874;28;20518;-78
2023/08/14 06:51:55;;;;;;;3.03;2.73;;;23.10;99.90;;;;;;5087256;28;20571;-80
2023/08/14 06:54:22;;;;;;;2.93;2.57;;;23.10;99.90;;;;;;5087184;28;21164;-81
2023/08/14 06:56:49;;;;;;;3.00;2.87;;;23.20;99.90;;;;;;5088531;28;20451;-79
2023/08/14 06:59:16;;;;;;;4.40;4.10;;;23.20;99.90;;;;;;5087482;28;20499;-79
2023/08/14 07:01:44;;;;;;;3.47;3.27;;;23.30;99.90;;;;;;5090002;28;20494;-78
2023/08/14 07:04:11;;;;;;;3.13;2.93;;;23.30;99.90;;;;;;5088391;28;20448;-80
2023/08/14 07:06:38;;;;;;;6.30;3.47;;;23.50;99.90;;;;;;5081348;28;20560;-79
2023/08/14 07:09:05;;;;;;;4.10;3.47;;;23.80;99.90;;;;;;5086117;28;20468;-79
2023/08/14 07:11:38;;;;;;;3.10;2.90;;;23.80;99.90;;;;;;5082802;28;20996;-79
2023/08/14 07:14:06;;;;;;;3.80;2.70;;;23.90;99.90;;;;;;5081860;28;20444;-77
2023/08/14 07:16:33;;;;;;;3.30;3.10;;;24.40;99.90;;;;;;5087573;28;20805;-79
2023/08/14 07:19:01;;;;;;;2.77;2.57;;;24.60;99.90;;;;;;5080102;28;20858;-80
2023/08/14 07:21:28;;;;;;;2.73;2.50;;;24.40;99.90;;;;;;5085955;28;20536;-78
2023/08/14 07:23:55;;;;;;;3.80;2.57;;;24.70;99.90;;;;;;5083773;28;20446;-82
2023/08/14 07:26:22;;;;;;;2.87;2.67;;;24.60;99.90;;;;;;5085350;28;20454;-78
2023/08/14 07:28:49;;;;;;;3.37;3.00;;;25.10;99.90;;;;;;5079220;28;20440;-78
2023/08/14 07:31:16;;;;;;;3.20;2.90;;;25.30;99.90;;;;;;5084160;28;20561;-77
2023/08/14 07:33:43;;;;;;;3.70;3.23;;;25.20;99.90;;;;;;5086114;28;20477;-79
2023/08/14 07:36:12;;;;;;;2.37;2.27;;;25.20;99.90;;;;;;5083798;28;20450;-79
2023/08/14 07:38:38;;;;;;;3.80;3.40;;;25.00;99.90;;;;;;5086423;28;20494;-79
2023/08/14 07:41:05;;;;;;;6.80;3.27;;;25.40;99.90;;;;;;5077771;28;21189;-78
2023/08/14 07:43:32;;;;;;;2.87;2.73;;;25.60;99.90;;;;;;5082925;28;20516;-79
2023/08/14 07:45:59;;;;;;;3.30;3.10;;;25.90;99.90;;;;;;5083864;28;21016;-81
2023/08/14 07:48:26;;;;;;;4.87;2.73;;;26.10;99.90;;;;;;5078260;28;20435;-81
2023/08/14 07:50:54;;;;;;;3.20;2.47;;;26.30;99.90;;;;;;5082295;28;20631;-79
2023/08/14 07:53:22;;;;;;;3.70;3.40;;;26.30;99.90;;;;;;5089282;28;20477;-79
2023/08/14 07:55:49;;;;;;;3.40;3.10;;;26.40;99.90;;;;;;5086104;28;21096;-78
2023/08/14 07:58:16;;;;;;;4.57;2.90;;;26.50;99.90;;;;;;5086827;28;20435;-79
2023/08/14 08:00:44;;;;;;;8.83;2.80;;;26.10;99.90;;;;;;5087072;28;20528;-80
2023/08/14 08:03:11;;;;;;;8.23;2.47;;;26.30;99.90;;;;;;5086007;28;20455;-80
2023/08/14 08:05:38;;;;;;;2.87;2.67;;;26.40;99.90;;;;;;5086051;28;20467;-78
2023/08/14 08:08:05;;;;;;;2.57;2.37;;;26.10;99.90;;;;;;5082775;28;20552;-78
2023/08/14 08:10:35;;;;;;;3.40;3.10;;;25.90;99.90;;;;;;5086434;28;21007;-80
2023/08/14 08:13:02;;;;;;;2.97;2.77;;;26.20;99.90;;;;;;5086223;28;20443;-78
2023/08/14 08:15:30;;;;;;;3.90;3.60;;;26.20;99.90;;;;;;5086505;28;20947;-80
2023/08/14 08:17:58;;;;;;;3.10;2.80;;;26.40;99.90;;;;;;5085438;28;20480;-80
2023/08/14 08:20:25;;;;;;;4.37;3.00;;;26.20;99.90;;;;;;5086789;28;20451;-78
2023/08/14 08:22:52;;;;;;;4.40;3.00;;;26.40;99.90;;;;;;5076864;28;20459;-80
2023/08/14 08:25:19;;;;;;;6.80;4.10;;;26.60;99.90;;;;;;5076570;28;20952;-80
2023/08/14 08:27:47;;;;;;;2.93;2.60;;;26.60;99.90;;;;;;5076853;28;20439;-81
2023/08/14 08:30:15;;;;;;;5.73;3.13;;;26.70;99.90;;;;;;5081545;28;20458;-82
2023/08/14 08:32:42;;;;;;;3.37;3.07;;;27.10;99.90;;;;;;5073356;28;20517;-80
2023/08/14 08:35:09;;;;;;;2.87;2.70;;;27.00;99.90;;;;;;5078613;28;20848;-79
2023/08/14 08:37:36;;;;;;;2.30;2.20;;;26.90;99.90;;;;;;5079521;28;20475;-81
2023/08/14 08:40:06;;;;;;;2.90;2.70;;;26.80;99.90;;;;;;5080987;28;20463;-78
2023/08/14 08:42:33;;;;;;;2.93;2.73;;;27.20;99.90;;;;;;5078251;28;20511;-80
2023/08/14 08:45:04;;;;;;;3.50;3.13;;;27.30;99.90;;;;;;5082447;28;20864;-79
2023/08/14 08:47:36;;;;;;;3.17;2.97;;;27.10;99.90;;;;;;5075949;28;21013;-79
2023/08/14 08:50:03;;;;;;;2.63;2.50;;;27.30;99.90;;;;;;5068786;28;20515;-81
2023/08/14 08:52:32;;;;;;;4.63;4.17;;;27.20;99.90;;;;;;5082640;28;20565;-78
2023/08/14 08:55:01;;;;;;;3.67;3.37;;;27.30;99.90;;;;;;5086223;28;20528;-80
2023/08/14 08:57:29;;;;;;;3.47;3.27;;;27.20;99.90;;;;;;5085458;28;20534;-81
2023/08/14 08:59:58;;;;;;;3.40;2.87;;;27.40;99.90;;;;;;5084800;28;20490;-79
2023/08/14 09:02:27;;;;;;;2.80;2.60;;;27.40;99.90;;;;;;5086050;28;20443;-79
2023/08/14 09:04:54;;;;;;;3.70;3.50;;;27.40;99.90;;;;;;5082005;28;20534;-79
2023/08/14 09:07:21;;;;;;;3.30;3.07;;;27.60;99.90;;;;;;5083547;28;20961;-79
2023/08/14 09:09:48;;;;;;;2.90;2.70;;;27.40;99.90;;;;;;5085978;28;20441;-79
2023/08/14 09:12:15;;;;;;;2.90;2.70;;;27.80;99.90;;;;;;5084067;28;20512;-80
2023/08/14 09:14:44;;;;;;;3.67;3.47;;;27.80;99.90;;;;;;5079418;28;20468;-79
2023/08/14 09:17:11;;;;;;;5.03;3.70;;;28.10;99.90;;;;;;5082703;28;20442;-80
2023/08/14 09:19:41;;;;;;;3.40;3.10;;;28.20;99.90;;;;;;5079201;28;20428;-79
2023/08/14 09:22:08;;;;;;;3.80;3.50;;;27.80;99.90;;;;;;5081422;28;20577;-78
2023/08/14 09:24:37;;;;;;;4.00;3.70;;;27.80;99.90;;;;;;5084555;28;20443;-80
2023/08/14 09:27:04;;;;;;;3.90;3.63;;;28.00;99.90;;;;;;5086364;28;20489;-79
2023/08/14 09:29:33;;;;;;;4.00;3.60;;;27.90;99.90;;;;;;5085391;28;20961;-79
2023/08/14 09:32:01;;;;;;;4.70;3.87;;;27.60;99.90;;;;;;5083208;28;20909;-81
2023/08/14 09:34:30;;;;;;;4.00;3.80;;;27.50;99.90;;;;;;5083610;28;20457;-78
2023/08/14 09:36:59;;;;;;;4.23;3.77;;;27.70;99.90;;;;;;5091271;28;20477;-80
2023/08/14 09:39:26;;;;;;;4.10;3.70;;;27.90;99.90;;;;;;5083529;28;20513;-80
2023/08/14 09:41:54;;;;;;;3.30;3.00;;;28.20;99.90;;;;;;5078918;28;20517;-79
2023/08/14 09:44:21;;;;;;;3.20;2.90;;;28.40;99.90;;;;;;5085629;28;20523;-80
2023/08/14 09:46:49;;;;;;;3.97;3.77;;;28.30;99.90;;;;;;5084799;28;20554;-81
2023/08/14 09:49:18;;;;;;;3.47;3.27;;;28.50;99.90;;;;;;5082820;28;20573;-79
2023/08/14 09:51:54;;;;;;;3.90;3.60;;;28.60;99.90;;;;;;5088853;28;20573;-80
2023/08/14 09:54:31;;;;;;;7.10;3.20;;;28.70;99.90;;;;;;5087264;28;20493;-80
2023/08/14 09:57:00;;;;;;;3.90;3.70;;;28.90;99.90;;;;;;5085579;28;20442;-82
2023/08/14 09:59:27;;;;;;;3.07;2.87;;;28.80;99.90;;;;;;5088316;28;20514;-79
2023/08/14 10:01:55;;;;;;;3.20;2.93;;;28.60;99.90;;;;;;5086478;28;20544;-81
2023/08/14 10:04:24;;;;;;;3.87;3.20;;;28.70;99.90;;;;;;5088933;28;20526;-80
2023/08/14 10:06:52;;;;;;;4.03;3.73;;;28.70;99.90;;;;;;5085192;28;20466;-80
2023/08/14 10:09:26;;;;;;;3.73;3.53;;;28.80;99.90;;;;;;5086687;28;20534;-82
2023/08/14 10:11:56;;;;;;;4.00;3.70;;;29.00;99.90;;;;;;5087576;28;21032;-82
2023/08/14 10:14:25;;;;;;;4.30;4.07;;;29.20;99.90;;;;;;5081834;28;20538;-79
2023/08/14 10:16:56;;;;;;;5.30;4.83;;;28.80;99.90;;;;;;5089640;28;20493;-80
2023/08/14 10:19:26;;;;;;;4.50;4.20;;;28.80;99.90;;;;;;5080795;28;20468;-80
2023/08/14 10:21:54;;;;;;;9.00;4.40;;;29.00;99.90;;;;;;5088870;28;20455;-79
2023/08/14 10:24:27;;;;;;;4.90;4.60;;;29.30;99.90;;;;;;5088716;28;20514;-80
2023/08/14 10:26:55;;;;;;;4.00;3.70;;;29.00;99.90;;;;;;5087472;28;20447;-80
2023/08/14 10:29:23;;;;;;;4.23;4.03;;;29.30;99.90;;;;;;5085225;28;20438;-81
2023/08/14 10:31:50;;;;;;;5.20;4.80;;;29.70;99.90;;;;;;5087617;28;20899;-80
2023/08/14 10:34:18;;;;;;;4.47;4.17;;;29.50;99.90;;;;;;5087954;28;20451;-80
2023/08/14 10:36:50;;;;;;;3.90;3.60;;;29.60;99.90;;;;;;5088485;28;20447;-76
2023/08/14 10:39:17;;;;;;;4.47;4.27;;;29.30;99.90;;;;;;5082460;28;21081;-76
2023/08/14 10:41:46;;;;;;;4.83;4.57;;;29.20;99.90;;;;;;5083773;28;20502;-76
2023/08/14 10:44:13;;;;;;;4.67;4.30;;;29.60;99.90;;;;;;5084845;28;20471;-81
2023/08/14 10:46:41;;;;;;;5.40;4.90;;;29.80;99.90;;;;;;5076832;28;20494;-79
2023/08/14 10:49:11;;;;;;;5.30;4.10;;;29.40;99.90;;;;;;5086410;28;20465;-78
2023/08/14 10:51:41;;;;;;;5.37;4.97;;;29.30;99.90;;;;;;5083800;28;21359;-82
2023/08/14 10:54:14;;;;;;;4.30;3.90;;;29.40;99.90;;;;;;5081941;28;20865;-79
2023/08/14 10:56:45;;;;;;;4.63;3.90;;;29.60;99.90;;;;;;5079944;28;20455;-80
2023/08/14 10:59:26;;;;;;;3.47;3.27;;;29.90;99.90;;;;;;5082008;28;20551;-82
2023/08/14 11:02:05;;;;;;;3.70;3.50;;;29.70;99.90;;;;;;5086368;28;20485;-79
2023/08/14 11:04:35;;;;;;;5.00;4.63;;;29.80;99.90;;;;;;5078632;28;20554;-80
2023/08/14 11:07:08;;;;;;;5.43;4.30;;;29.90;99.90;;;;;;5085009;28;20455;-78
2023/08/14 11:09:37;;;;;;;3.83;3.53;;;29.80;99.90;;;;;;5086065;28;20964;-79
2023/08/14 11:12:05;;;;;;;4.77;4.37;;;29.60;99.90;;;;;;5087090;28;20489;-79
2023/08/14 11:14:36;;;;;;;3.97;3.67;;;29.80;99.90;;;;;;5078454;28;20518;-79
2023/08/14 11:17:04;;;;;;;4.30;4.00;;;29.90;99.90;;;;;;5084945;28;20447;-78
2023/08/14 11:19:33;;;;;;;4.47;4.17;;;29.80;99.90;;;;;;5081237;28;20543;-79
2023/08/14 11:22:00;;;;;;;4.83;4.53;;;30.00;99.90;;;;;;5087808;28;20532;-78
2023/08/14 11:24:27;;;;;;;4.60;4.20;;;30.30;99.90;;;;;;5082301;28;21051;-79
2023/08/14 11:26:57;;;;;;;4.03;3.83;;;30.30;99.90;;;;;;5086112;28;20459;-79
2023/08/14 11:29:24;;;;;;;5.30;4.77;;;30.10;99.90;;;;;;5079240;28;20462;-78
2023/08/14 11:31:53;;;;;;;3.90;3.57;;;30.30;99.90;;;;;;5084258;28;20631;-81
2023/08/14 11:34:21;;;;;;;3.10;2.97;;;30.40;99.90;;;;;;5079601;28;21011;-78
2023/08/14 11:36:55;;;;;;;5.60;5.23;;;30.50;99.90;;;;;;5082562;28;21311;-79
2023/08/14 11:39:22;;;;;;;9.10;4.40;;;30.80;99.90;;;;;;5078157;28;20451;-78
2023/08/14 11:41:48;;;;;;;4.17;3.77;;;30.70;99.90;;;;;;5080510;28;20646;-78
2023/08/14 11:44:15;;;;;;;4.90;4.60;;;30.50;99.90;;;;;;5085104;28;20459;-78
2023/08/14 11:46:43;;;;;;;5.23;4.87;;;30.90;99.90;;;;;;5080748;28;20468;-79
2023/08/14 11:49:12;;;;;;;4.87;4.50;;;30.80;99.90;;;;;;5082205;28;20451;-77
2023/08/14 11:51:40;;;;;;;5.37;4.90;;;31.10;99.90;;;;;;5084563;28;20991;-80
2023/08/14 11:54:08;;;;;;;4.83;4.53;;;31.00;99.90;;;;;;5073522;28;21157;-81
2023/08/14 11:56:35;;;;;;;5.20;4.80;;;31.00;99.30;;;;;;5083710;28;20457;-78
2023/08/14 11:59:03;;;;;;;4.77;4.23;;;31.20;99.90;;;;;;5078400;28;20440;-78
2023/08/14 12:01:31;;;;;;;4.90;4.50;;;31.20;99.90;;;;;;5082900;28;20607;-80
2023/08/14 12:03:58;;;;;;;5.60;4.13;;;31.10;99.10;;;;;;5079878;28;20501;-78
2023/08/14 12:06:26;;;;;;;4.50;3.67;;;31.20;99.90;;;;;;5078716;28;20531;-78
2023/08/14 12:08:53;;;;;;;4.40;4.10;;;31.00;98.80;;;;;;5083421;28;20504;-79
2023/08/14 12:11:20;;;;;;;3.70;3.40;;;31.00;99.90;;;;;;5081201;28;20445;-78
2023/08/14 12:13:51;;;;;;;4.57;4.17;;;31.00;99.90;;;;;;5078341;28;20501;-78
2023/08/14 12:16:18;;;;;;;5.23;4.93;;;31.20;99.90;;;;;;5081135;28;20458;-78
2023/08/14 12:18:46;;;;;;;3.90;3.70;;;31.30;98.10;;;;;;5078278;28;20470;-77
2023/08/14 12:21:13;;;;;;;4.73;4.43;;;31.10;99.40;;;;;;5077075;28;21026;-77
2023/08/14 12:23:47;;;;;;;4.43;4.23;;;31.00;99.90;;;;;;5080536;28;20459;-77
2023/08/14 12:26:14;;;;;;;5.40;4.97;;;31.10;99.90;;;;;;5077559;28;20554;-78
2023/08/14 12:28:43;;;;;;;4.73;4.43;;;31.30;99.80;;;;;;5076753;28;20439;-78
2023/08/14 12:31:10;;;;;;;5.57;4.70;;;30.90;98.90;;;;;;5079194;28;20463;-78
2023/08/14 12:33:39;;;;;;;4.43;4.23;;;30.90;99.70;;;;;;5082136;28;20482;-79
2023/08/14 12:36:06;;;;;;;4.97;3.67;;;31.10;99.70;;;;;;5077868;28;20444;-78
2023/08/14 12:38:33;;;;;;;3.50;3.20;;;31.40;99.10;;;;;;5077509;28;20458;-78
2023/08/14 12:41:02;;;;;;;4.13;3.80;;;31.50;99.50;;;;;;5070773;28;20455;-78
2023/08/14 12:43:29;;;;;;;4.47;4.17;;;31.80;97.80;;;;;;5079484;28;22177;-78
2023/08/14 12:45:56;;;;;;;4.27;3.97;;;31.80;97.90;;;;;;5082186;28;20508;-81
2023/08/14 12:48:23;;;;;;;4.13;3.93;;;31.80;97.10;;;;;;5075999;28;20520;-78
2023/08/14 12:50:50;;;;;;;3.50;3.30;;;31.80;97.00;;;;;;5081925;28;20922;-78
2023/08/14 12:53:17;;;;;;;3.80;3.60;;;31.70;97.50;;;;;;5085807;28;20479;-79